sensor_id;sensor_type;location;lat;lon;timestamp;temperature;humidity
43043;DHT22;28667;50.758;6.096;2023-05-10T00:02:09;13.00;99.90
43043;DHT22;28667;50.758;6.096;2023-05-10T00:04:34;13.00;99.90
43043;DHT22;28667;50.758;6.096;2023-05-10T00:07:00;13.00;99.90
43043;DHT22;28667;50.758;6.096;2023-05-10T00:09:27;13.00;99.90
43043;DHT22;28667;50.758;6.096;2023-05-10T00:11:53;13.00;99.90
43043;DHT22;28667;50.758;6.096;2023-05-10T00:14:18;13.00;99.90
43043;DHT22;28667;50.758;6.096;2023-05-10T00:16:44;13.00;99.90
43043;DHT22;28667;50.758;6.096;2023-05-10T00:19:10;13.00;99.90
43043;DHT22;28667;50.758;6.096;2023-05-10T00:21:36;13.00;99.90
43043;DHT22;28667;50.758;6.096;2023-05-10T00:24:02;13.00;99.90
43043;DHT22;28667;50.758;6.096;2023-05-10T00:26:28;12.90;99.90
43043;DHT22;28667;50.758;6.096;2023-05-10T00:28:55;12.90;99.90
43043;DHT22;28667;50.758;6.096;2023-05-10T00:31:22;13.00;99.90
43043;DHT22;28667;50.758;6.096;2023-05-10T00:33:48;12.90;99.90
43043;DHT22;28667;50.758;6.096;2023-05-10T00:36:13;12.90;99.90
43043;DHT22;28667;50.758;6.096;2023-05-10T00:38:40;13.00;99.90
43043;DHT22;28667;50.758;6.096;2023-05-10T00:41:06;13.00;99.90
43043;DHT22;28667;50.758;6.096;2023-05-10T00:43:33;13.00;99.90
43043;DHT22;28667;50.758;6.096;2023-05-10T00:45:59;13.00;99.90
43043;DHT22;28667;50.758;6.096;2023-05-10T00:48:25;12.90;99.90
43043;DHT22;28667;50.758;6.096;2023-05-10T00:50:51;13.00;99.90
43043;DHT22;28667;50.758;6.096;2023-05-10T00:53:17;13.00;99.90
43043;DHT22;28667;50.758;6.096;2023-05-10T00:55:44;12.90;99.90
43043;DHT22;28667;50.758;6.096;2023-05-10T00:58:10;12.90;99.90
43043;DHT22;28667;50.758;6.096;2023-05-10T01:00:37;12.90;99.90
43043;DHT22;28667;50.758;6.096;2023-05-10T01:03:04;12.90;99.90
43043;DHT22;28667;50.758;6.096;2023-05-10T01:05:29;12.90;99.90
43043;DHT22;28667;50.758;6.096;2023-05-10T01:07:56;12.90;99.90
43043;DHT22;28667;50.758;6.096;2023-05-10T01:10:22;12.90;99.90
43043;DHT22;28667;50.758;6.096;2023-05-10T01:12:48;12.90;99.90
43043;DHT22;28667;50.758;6.096;2023-05-10T01:15:15;12.90;99.90
43043;DHT22;28667;50.758;6.096;2023-05-10T01:17:46;12.80;99.90
43043;DHT22;28667;50.758;6.096;2023-05-10T01:20:12;12.80;99.90
43043;DHT22;28667;50.758;6.096;2023-05-10T01:34:21;12.80;99.90
43043;DHT22;28667;50.758;6.096;2023-05-10T01:36:58;12.80;99.90
43043;DHT22;28667;50.758;6.096;2023-05-10T01:42:11;12.80;99.90
43043;DHT22;28667;50.758;6.096;2023-05-10T01:48:08;12.80;99.90
43043;DHT22;28667;50.758;6.096;2023-05-10T01:50:36;12.80;99.90
43043;DHT22;28667;50.758;6.096;2023-05-10T01:53:07;12.80;99.90
43043;DHT22;28667;50.758;6.096;2023-05-10T01:55:36;12.70;99.90
43043;DHT22;28667;50.758;6.096;2023-05-10T01:58:08;12.80;99.90
43043;DHT22;28667;50.758;6.096;2023-05-10T02:00:35;12.80;99.90
43043;DHT22;28667;50.758;6.096;2023-05-10T02:03:05;12.80;99.90
43043;DHT22;28667;50.758;6.096;2023-05-10T02:05:33;12.80;99.90
43043;DHT22;28667;50.758;6.096;2023-05-10T02:08:01;12.80;99.90
43043;DHT22;28667;50.758;6.096;2023-05-10T02:10:28;12.70;99.90
43043;DHT22;28667;50.758;6.096;2023-05-10T02:12:55;12.80;99.90
43043;DHT22;28667;50.758;6.096;2023-05-10T02:15:24;12.80;99.90
43043;DHT22;28667;50.758;6.096;2023-05-10T02:17:54;12.70;99.90
43043;DHT22;28667;50.758;6.096;2023-05-10T02:20:22;12.70;99.90
43043;DHT22;28667;50.758;6.096;2023-05-10T02:22:49;12.70;99.90
43043;DHT22;28667;50.758;6.096;2023-05-10T02:25:18;12.70;99.90
43043;DHT22;28667;50.758;6.096;2023-05-10T02:27:45;12.70;99.90
43043;DHT22;28667;50.758;6.096;2023-05-10T02:30:12;12.70;99.90
43043;DHT22;28667;50.758;6.096;2023-05-10T02:32:39;12.70;99.90
43043;DHT22;28667;50.758;6.096;2023-05-10T02:35:06;12.70;99.90
43043;DHT22;28667;50.758;6.096;2023-05-10T02:37:33;12.70;99.90
43043;DHT22;28667;50.758;6.096;2023-05-10T02:40:00;12.70;99.90
43043;DHT22;28667;50.758;6.096;2023-05-10T02:42:32;12.70;99.90
43043;DHT22;28667;50.758;6.096;2023-05-10T02:45:01;12.60;99.90
43043;DHT22;28667;50.758;6.096;2023-05-10T02:47:28;12.60;99.90
43043;DHT22;28667;50.758;6.096;2023-05-10T02:49:55;12.60;99.90
43043;DHT22;28667;50.758;6.096;2023-05-10T02:52:27;12.60;99.90
43043;DHT22;28667;50.758;6.096;2023-05-10T02:54:55;12.60;99.90
43043;DHT22;28667;50.758;6.096;2023-05-10T02:57:28;12.60;99.90
43043;DHT22;28667;50.758;6.096;2023-05-10T02:59:56;12.50;99.90
43043;DHT22;28667;50.758;6.096;2023-05-10T03:02:22;12.50;99.90
43043;DHT22;28667;50.758;6.096;2023-05-10T03:04:48;12.50;99.90
43043;DHT22;28667;50.758;6.096;2023-05-10T03:07:14;12.50;99.90
43043;DHT22;28667;50.758;6.096;2023-05-10T03:09:40;12.40;99.90
43043;DHT22;28667;50.758;6.096;2023-05-10T03:12:22;12.50;99.90
43043;DHT22;28667;50.758;6.096;2023-05-10T03:15:06;12.40;99.90
43043;DHT22;28667;50.758;6.096;2023-05-10T03:18:09;12.40;99.90
43043;DHT22;28667;50.758;6.096;2023-05-10T03:20:42;12.40;99.90
43043;DHT22;28667;50.758;6.096;2023-05-10T03:24:05;12.40;99.90
43043;DHT22;28667;50.758;6.096;2023-05-10T03:26:24;12.40;99.90
43043;DHT22;28667;50.758;6.096;2023-05-10T03:28:57;12.40;99.90
43043;DHT22;28667;50.758;6.096;2023-05-10T03:31:24;12.40;99.90
43043;DHT22;28667;50.758;6.096;2023-05-10T03:33:51;12.40;99.90
43043;DHT22;28667;50.758;6.096;2023-05-10T03:36:22;12.40;99.90
43043;DHT22;28667;50.758;6.096;2023-05-10T03:38:48;12.40;99.90
43043;DHT22;28667;50.758;6.096;2023-05-10T03:41:14;12.40;99.90
43043;DHT22;28667;50.758;6.096;2023-05-10T03:43:39;12.40;99.90
43043;DHT22;28667;50.758;6.096;2023-05-10T03:46:06;12.40;99.90
43043;DHT22;28667;50.758;6.096;2023-05-10T03:48:33;12.50;99.90
43043;DHT22;28667;50.758;6.096;2023-05-10T03:50:59;12.40;99.90
43043;DHT22;28667;50.758;6.096;2023-05-10T03:53:25;12.40;99.90
43043;DHT22;28667;50.758;6.096;2023-05-10T03:55:51;12.40;99.90
43043;DHT22;28667;50.758;6.096;2023-05-10T03:58:16;12.40;99.90
43043;DHT22;28667;50.758;6.096;2023-05-10T04:00:42;12.40;99.90
43043;DHT22;28667;50.758;6.096;2023-05-10T04:03:11;12.40;99.90
43043;DHT22;28667;50.758;6.096;2023-05-10T04:05:38;12.40;99.90
43043;DHT22;28667;50.758;6.096;2023-05-10T04:08:04;12.40;99.90
43043;DHT22;28667;50.758;6.096;2023-05-10T04:10:30;12.40;99.90
43043;DHT22;28667;50.758;6.096;2023-05-10T04:12:56;12.40;99.90
43043;DHT22;28667;50.758;6.096;2023-05-10T04:15:21;12.40;99.90
43043;DHT22;28667;50.758;6.096;2023-05-10T04:17:47;12.40;99.90
43043;DHT22;28667;50.758;6.096;2023-05-10T04:20:14;12.40;99.90
43043;DHT22;28667;50.758;6.096;2023-05-10T04:22:39;12.40;99.90
43043;DHT22;28667;50.758;6.096;2023-05-10T04:25:06;12.40;99.90
43043;DHT22;28667;50.758;6.096;2023-05-10T04:27:32;12.40;99.90
43043;DHT22;28667;50.758;6.096;2023-05-10T04:29:58;12.40;99.90
43043;DHT22;28667;50.758;6.096;2023-05-10T04:32:24;12.40;99.90
43043;DHT22;28667;50.758;6.096;2023-05-10T04:34:49;12.40;99.90
43043;DHT22;28667;50.758;6.096;2023-05-10T04:37:17;12.40;99.90
43043;DHT22;28667;50.758;6.096;2023-05-10T04:39:43;12.40;99.90
43043;DHT22;28667;50.758;6.096;2023-05-10T04:42:09;12.40;99.90
43043;DHT22;28667;50.758;6.096;2023-05-10T04:44:34;12.40;99.90
43043;DHT22;28667;50.758;6.096;2023-05-10T04:47:00;12.40;99.90
43043;DHT22;28667;50.758;6.096;2023-05-10T04:49:28;12.40;99.90
43043;DHT22;28667;50.758;6.096;2023-05-10T04:51:54;12.40;99.90
43043;DHT22;28667;50.758;6.096;2023-05-10T04:54:19;12.40;99.90
43043;DHT22;28667;50.758;6.096;2023-05-10T04:56:45;12.40;99.90
43043;DHT22;28667;50.758;6.096;2023-05-10T04:59:11;12.40;99.90
43043;DHT22;28667;50.758;6.096;2023-05-10T05:01:37;12.40;99.90
43043;DHT22;28667;50.758;6.096;2023-05-10T05:04:02;12.40;99.90
43043;DHT22;28667;50.758;6.096;2023-05-10T05:06:28;12.40;99.90
43043;DHT22;28667;50.758;6.096;2023-05-10T05:08:54;12.40;99.90
43043;DHT22;28667;50.758;6.096;2023-05-10T05:11:20;12.40;99.90
43043;DHT22;28667;50.758;6.096;2023-05-10T05:13:46;12.50;99.90
43043;DHT22;28667;50.758;6.096;2023-05-10T05:16:12;12.50;99.90
43043;DHT22;28667;50.758;6.096;2023-05-10T05:18:38;12.50;99.90
43043;DHT22;28667;50.758;6.096;2023-05-10T05:21:16;12.50;99.90
43043;DHT22;28667;50.758;6.096;2023-05-10T05:23:43;12.50;99.90
43043;DHT22;28667;50.758;6.096;2023-05-10T05:26:09;12.60;99.90
43043;DHT22;28667;50.758;6.096;2023-05-10T05:28:35;12.60;99.90
43043;DHT22;28667;50.758;6.096;2023-05-10T05:31:06;12.60;99.90
43043;DHT22;28667;50.758;6.096;2023-05-10T05:33:35;12.60;99.90
43043;DHT22;28667;50.758;6.096;2023-05-10T05:36:02;12.60;99.90
43043;DHT22;28667;50.758;6.096;2023-05-10T05:38:28;12.70;99.90
43043;DHT22;28667;50.758;6.096;2023-05-10T05:40:54;12.60;99.90
43043;DHT22;28667;50.758;6.096;2023-05-10T05:43:20;12.70;99.90
43043;DHT22;28667;50.758;6.096;2023-05-10T05:45:46;12.60;99.90
43043;DHT22;28667;50.758;6.096;2023-05-10T05:48:11;12.60;99.90
43043;DHT22;28667;50.758;6.096;2023-05-10T05:50:37;12.60;99.90
43043;DHT22;28667;50.758;6.096;2023-05-10T05:53:03;12.60;99.90
43043;DHT22;28667;50.758;6.096;2023-05-10T05:55:29;12.60;99.90
43043;DHT22;28667;50.758;6.096;2023-05-10T05:57:57;12.70;99.90
43043;DHT22;28667;50.758;6.096;2023-05-10T06:00:23;12.60;99.90
43043;DHT22;28667;50.758;6.096;2023-05-10T06:02:49;12.60;99.90
43043;DHT22;28667;50.758;6.096;2023-05-10T06:05:14;12.70;99.90
43043;DHT22;28667;50.758;6.096;2023-05-10T06:07:40;12.70;99.90
43043;DHT22;28667;50.758;6.096;2023-05-10T06:10:09;12.70;99.90
43043;DHT22;28667;50.758;6.096;2023-05-10T06:12:35;12.70;99.90
43043;DHT22;28667;50.758;6.096;2023-05-10T06:15:01;12.70;99.90
43043;DHT22;28667;50.758;6.096;2023-05-10T06:17:27;12.70;99.90
43043;DHT22;28667;50.758;6.096;2023-05-10T06:19:54;12.80;99.90
43043;DHT22;28667;50.758;6.096;2023-05-10T06:22:20;12.80;99.90
43043;DHT22;28667;50.758;6.096;2023-05-10T06:24:48;12.80;99.90
43043;DHT22;28667;50.758;6.096;2023-05-10T06:27:14;12.90;99.90
43043;DHT22;28667;50.758;6.096;2023-05-10T06:29:40;12.80;99.90
43043;DHT22;28667;50.758;6.096;2023-05-10T06:32:06;12.90;99.90
43043;DHT22;28667;50.758;6.096;2023-05-10T06:34:32;12.90;99.90
43043;DHT22;28667;50.758;6.096;2023-05-10T06:36:57;12.80;99.90
43043;DHT22;28667;50.758;6.096;2023-05-10T06:39:23;12.80;99.90
43043;DHT22;28667;50.758;6.096;2023-05-10T06:41:49;12.70;99.90
43043;DHT22;28667;50.758;6.096;2023-05-10T06:44:15;12.70;99.90
43043;DHT22;28667;50.758;6.096;2023-05-10T06:46:40;12.60;99.90
43043;DHT22;28667;50.758;6.096;2023-05-10T06:49:07;12.60;99.90
43043;DHT22;28667;50.758;6.096;2023-05-10T06:51:33;12.50;99.90
43043;DHT22;28667;50.758;6.096;2023-05-10T06:53:59;12.50;99.90
43043;DHT22;28667;50.758;6.096;2023-05-10T06:56:24;12.50;99.90
43043;DHT22;28667;50.758;6.096;2023-05-10T06:58:50;12.50;99.90
43043;DHT22;28667;50.758;6.096;2023-05-10T07:01:16;12.40;99.90
43043;DHT22;28667;50.758;6.096;2023-05-10T07:03:42;12.40;99.90
43043;DHT22;28667;50.758;6.096;2023-05-10T07:06:07;12.40;99.90
43043;DHT22;28667;50.758;6.096;2023-05-10T07:08:33;12.40;99.90
43043;DHT22;28667;50.758;6.096;2023-05-10T07:11:03;12.40;99.90
43043;DHT22;28667;50.758;6.096;2023-05-10T07:13:30;12.40;99.90
43043;DHT22;28667;50.758;6.096;2023-05-10T07:15:57;12.40;99.90
43043;DHT22;28667;50.758;6.096;2023-05-10T07:18:24;12.40;99.90
43043;DHT22;28667;50.758;6.096;2023-05-10T07:20:50;12.30;99.90
43043;DHT22;28667;50.758;6.096;2023-05-10T07:23:15;12.40;99.90
43043;DHT22;28667;50.758;6.096;2023-05-10T07:25:45;12.40;99.90
43043;DHT22;28667;50.758;6.096;2023-05-10T07:28:12;12.40;99.90
43043;DHT22;28667;50.758;6.096;2023-05-10T07:30:38;12.40;99.90
43043;DHT22;28667;50.758;6.096;2023-05-10T07:33:03;12.40;99.90
43043;DHT22;28667;50.758;6.096;2023-05-10T07:35:29;12.40;99.90
43043;DHT22;28667;50.758;6.096;2023-05-10T07:37:55;12.40;99.90
43043;DHT22;28667;50.758;6.096;2023-05-10T07:40:21;12.40;99.90
43043;DHT22;28667;50.758;6.096;2023-05-10T07:42:46;12.50;99.90
43043;DHT22;28667;50.758;6.096;2023-05-10T07:45:12;12.50;99.90
43043;DHT22;28667;50.758;6.096;2023-05-10T07:47:38;12.50;99.90
43043;DHT22;28667;50.758;6.096;2023-05-10T07:50:04;12.50;99.90
43043;DHT22;28667;50.758;6.096;2023-05-10T07:52:30;12.50;99.90
43043;DHT22;28667;50.758;6.096;2023-05-10T07:54:55;12.60;99.90
43043;DHT22;28667;50.758;6.096;2023-05-10T07:57:22;12.60;99.90
43043;DHT22;28667;50.758;6.096;2023-05-10T07:59:48;12.60;99.90
43043;DHT22;28667;50.758;6.096;2023-05-10T08:02:14;12.70;99.90
43043;DHT22;28667;50.758;6.096;2023-05-10T08:04:39;12.70;99.90
43043;DHT22;28667;50.758;6.096;2023-05-10T08:07:05;12.70;99.90
43043;DHT22;28667;50.758;6.096;2023-05-10T08:09:31;12.70;99.90
43043;DHT22;28667;50.758;6.096;2023-05-10T08:11:57;12.70;99.90
43043;DHT22;28667;50.758;6.096;2023-05-10T08:14:24;12.70;99.90
43043;DHT22;28667;50.758;6.096;2023-05-10T08:16:50;12.70;99.90
43043;DHT22;28667;50.758;6.096;2023-05-10T08:19:16;12.60;99.90
43043;DHT22;28667;50.758;6.096;2023-05-10T08:21:45;12.70;99.90
43043;DHT22;28667;50.758;6.096;2023-05-10T08:24:11;12.70;99.90
43043;DHT22;28667;50.758;6.096;2023-05-10T08:26:36;12.80;99.90
43043;DHT22;28667;50.758;6.096;2023-05-10T08:29:02;12.90;99.90
43043;DHT22;28667;50.758;6.096;2023-05-10T08:31:28;12.90;99.90
43043;DHT22;28667;50.758;6.096;2023-05-10T08:33:54;13.00;99.90
43043;DHT22;28667;50.758;6.096;2023-05-10T08:36:20;13.00;99.90
43043;DHT22;28667;50.758;6.096;2023-05-10T08:38:50;13.00;99.90
43043;DHT22;28667;50.758;6.096;2023-05-10T08:41:22;13.00;99.90
43043;DHT22;28667;50.758;6.096;2023-05-10T08:43:50;13.10;99.90
43043;DHT22;28667;50.758;6.096;2023-05-10T08:46:18;13.00;99.90
43043;DHT22;28667;50.758;6.096;2023-05-10T08:48:48;13.10;99.90
43043;DHT22;28667;50.758;6.096;2023-05-10T08:51:18;13.10;99.90
43043;DHT22;28667;50.758;6.096;2023-05-10T08:53:45;13.20;99.90
43043;DHT22;28667;50.758;6.096;2023-05-10T08:56:11;13.20;99.90
43043;DHT22;28667;50.758;6.096;2023-05-10T08:58:38;13.30;99.90
43043;DHT22;28667;50.758;6.096;2023-05-10T09:01:07;13.40;99.90
43043;DHT22;28667;50.758;6.096;2023-05-10T09:03:34;13.40;99.90
43043;DHT22;28667;50.758;6.096;2023-05-10T09:06:00;13.40;99.90
43043;DHT22;28667;50.758;6.096;2023-05-10T09:08:26;13.40;99.90
43043;DHT22;28667;50.758;6.096;2023-05-10T09:10:53;13.40;99.90
43043;DHT22;28667;50.758;6.096;2023-05-10T09:13:19;13.30;99.90
43043;DHT22;28667;50.758;6.096;2023-05-10T09:15:46;13.30;99.90
43043;DHT22;28667;50.758;6.096;2023-05-10T09:18:12;13.30;99.90
43043;DHT22;28667;50.758;6.096;2023-05-10T09:20:38;13.40;99.90
43043;DHT22;28667;50.758;6.096;2023-05-10T09:23:04;13.50;99.90
43043;DHT22;28667;50.758;6.096;2023-05-10T09:25:30;13.50;99.90
43043;DHT22;28667;50.758;6.096;2023-05-10T09:27:58;13.60;99.90
43043;DHT22;28667;50.758;6.096;2023-05-10T09:30:31;13.70;99.90
43043;DHT22;28667;50.758;6.096;2023-05-10T09:32:58;13.60;99.90
43043;DHT22;28667;50.758;6.096;2023-05-10T09:35:26;13.70;99.90
43043;DHT22;28667;50.758;6.096;2023-05-10T09:37:54;13.70;99.90
43043;DHT22;28667;50.758;6.096;2023-05-10T09:40:21;13.80;99.90
43043;DHT22;28667;50.758;6.096;2023-05-10T09:45:25;13.80;99.90
43043;DHT22;28667;50.758;6.096;2023-05-10T09:47:51;13.80;99.90
43043;DHT22;28667;50.758;6.096;2023-05-10T09:50:18;13.80;99.90
43043;DHT22;28667;50.758;6.096;2023-05-10T09:55:19;13.90;99.90
43043;DHT22;28667;50.758;6.096;2023-05-10T09:57:46;14.10;99.90
43043;DHT22;28667;50.758;6.096;2023-05-10T10:00:19;14.20;99.90
43043;DHT22;28667;50.758;6.096;2023-05-10T10:02:47;14.30;99.90
43043;DHT22;28667;50.758;6.096;2023-05-10T10:05:13;14.30;99.90
43043;DHT22;28667;50.758;6.096;2023-05-10T10:07:40;14.40;99.90
43043;DHT22;28667;50.758;6.096;2023-05-10T10:10:07;14.50;99.90
43043;DHT22;28667;50.758;6.096;2023-05-10T10:12:37;14.60;99.90
43043;DHT22;28667;50.758;6.096;2023-05-10T10:15:03;14.70;99.90
43043;DHT22;28667;50.758;6.096;2023-05-10T10:17:30;14.70;99.90
43043;DHT22;28667;50.758;6.096;2023-05-10T10:19:57;14.80;99.90
43043;DHT22;28667;50.758;6.096;2023-05-10T10:22:23;14.80;99.90
43043;DHT22;28667;50.758;6.096;2023-05-10T10:24:50;14.80;99.90
43043;DHT22;28667;50.758;6.096;2023-05-10T10:27:48;14.80;99.90
43043;DHT22;28667;50.758;6.096;2023-05-10T10:35:32;15.00;99.90
43043;DHT22;28667;50.758;6.096;2023-05-10T10:37:58;15.10;99.90
43043;DHT22;28667;50.758;6.096;2023-05-10T10:40:32;15.10;99.90
43043;DHT22;28667;50.758;6.096;2023-05-10T10:42:58;15.00;99.90
43043;DHT22;28667;50.758;6.096;2023-05-10T10:45:44;15.00;99.90
43043;DHT22;28667;50.758;6.096;2023-05-10T10:48:23;15.10;99.90
43043;DHT22;28667;50.758;6.096;2023-05-10T10:50:56;15.00;99.90
43043;DHT22;28667;50.758;6.096;2023-05-10T10:53:26;15.00;99.90
43043;DHT22;28667;50.758;6.096;2023-05-10T10:56:04;15.00;99.90
43043;DHT22;28667;50.758;6.096;2023-05-10T10:58:33;15.20;99.90
43043;DHT22;28667;50.758;6.096;2023-05-10T11:01:15;15.20;99.90
43043;DHT22;28667;50.758;6.096;2023-05-10T11:03:54;15.30;99.90
43043;DHT22;28667;50.758;6.096;2023-05-10T11:06:30;15.40;99.90
43043;DHT22;28667;50.758;6.096;2023-05-10T11:08:57;15.40;99.90
43043;DHT22;28667;50.758;6.096;2023-05-10T11:11:23;15.30;99.90
43043;DHT22;28667;50.758;6.096;2023-05-10T11:13:49;15.20;99.90
43043;DHT22;28667;50.758;6.096;2023-05-10T11:16:23;15.30;99.90
43043;DHT22;28667;50.758;6.096;2023-05-10T11:21:25;15.40;99.90
43043;DHT22;28667;50.758;6.096;2023-05-10T11:23:53;15.50;99.90
43043;DHT22;28667;50.758;6.096;2023-05-10T11:26:27;15.50;99.90
43043;DHT22;28667;50.758;6.096;2023-05-10T11:28:55;15.50;99.90
43043;DHT22;28667;50.758;6.096;2023-05-10T11:31:22;15.60;99.90
43043;DHT22;28667;50.758;6.096;2023-05-10T11:33:55;15.60;99.90
43043;DHT22;28667;50.758;6.096;2023-05-10T11:36:24;15.60;99.90
43043;DHT22;28667;50.758;6.096;2023-05-10T11:38:51;15.50;99.90
43043;DHT22;28667;50.758;6.096;2023-05-10T11:41:19;15.40;99.90
43043;DHT22;28667;50.758;6.096;2023-05-10T11:43:49;15.30;99.90
43043;DHT22;28667;50.758;6.096;2023-05-10T11:46:19;15.20;99.90
43043;DHT22;28667;50.758;6.096;2023-05-10T11:48:47;15.20;99.90
43043;DHT22;28667;50.758;6.096;2023-05-10T11:51:15;15.30;99.90
43043;DHT22;28667;50.758;6.096;2023-05-10T11:53:41;15.30;99.90
43043;DHT22;28667;50.758;6.096;2023-05-10T11:56:08;15.30;99.90
43043;DHT22;28667;50.758;6.096;2023-05-10T11:58:36;15.30;99.90
43043;DHT22;28667;50.758;6.096;2023-05-10T12:01:02;15.20;99.90
43043;DHT22;28667;50.758;6.096;2023-05-10T12:03:28;15.20;99.90
43043;DHT22;28667;50.758;6.096;2023-05-10T12:05:56;15.20;99.90
43043;DHT22;28667;50.758;6.096;2023-05-10T12:08:27;15.20;99.90
43043;DHT22;28667;50.758;6.096;2023-05-10T12:11:03;15.20;99.90
43043;DHT22;28667;50.758;6.096;2023-05-10T12:13:29;15.30;99.90
43043;DHT22;28667;50.758;6.096;2023-05-10T12:15:58;15.30;99.90
43043;DHT22;28667;50.758;6.096;2023-05-10T12:18:24;15.30;99.90
43043;DHT22;28667;50.758;6.096;2023-05-10T12:20:53;15.30;99.90
43043;DHT22;28667;50.758;6.096;2023-05-10T12:23:20;15.30;99.90
43043;DHT22;28667;50.758;6.096;2023-05-10T12:25:46;15.40;99.90
43043;DHT22;28667;50.758;6.096;2023-05-10T12:28:12;15.50;99.90
43043;DHT22;28667;50.758;6.096;2023-05-10T12:30:38;15.60;99.90
43043;DHT22;28667;50.758;6.096;2023-05-10T12:33:12;15.60;99.90
43043;DHT22;28667;50.758;6.096;2023-05-10T12:35:49;15.60;99.90
43043;DHT22;28667;50.758;6.096;2023-05-10T12:40:59;15.70;99.90
43043;DHT22;28667;50.758;6.096;2023-05-10T12:43:25;15.80;99.90
43043;DHT22;28667;50.758;6.096;2023-05-10T12:45:51;15.80;99.90
43043;DHT22;28667;50.758;6.096;2023-05-10T12:48:17;15.80;99.90
43043;DHT22;28667;50.758;6.096;2023-05-10T12:50:43;16.00;99.90
43043;DHT22;28667;50.758;6.096;2023-05-10T12:53:08;16.10;99.90
43043;DHT22;28667;50.758;6.096;2023-05-10T12:55:34;16.10;99.90
43043;DHT22;28667;50.758;6.096;2023-05-10T12:58:00;16.20;99.90
43043;DHT22;28667;50.758;6.096;2023-05-10T13:00:26;16.30;99.90
43043;DHT22;28667;50.758;6.096;2023-05-10T13:02:51;16.40;99.90
43043;DHT22;28667;50.758;6.096;2023-05-10T13:05:18;16.50;99.90
43043;DHT22;28667;50.758;6.096;2023-05-10T13:07:44;16.50;99.90
43043;DHT22;28667;50.758;6.096;2023-05-10T13:10:10;16.40;99.90
43043;DHT22;28667;50.758;6.096;2023-05-10T13:12:36;16.30;99.90
43043;DHT22;28667;50.758;6.096;2023-05-10T13:15:03;16.20;99.90
43043;DHT22;28667;50.758;6.096;2023-05-10T13:17:29;16.10;99.90
43043;DHT22;28667;50.758;6.096;2023-05-10T13:19:55;15.90;99.90
43043;DHT22;28667;50.758;6.096;2023-05-10T13:22:21;15.80;99.90
43043;DHT22;28667;50.758;6.096;2023-05-10T13:24:46;15.60;99.90
43043;DHT22;28667;50.758;6.096;2023-05-10T13:27:12;15.50;99.90
43043;DHT22;28667;50.758;6.096;2023-05-10T13:29:38;15.40;99.90
43043;DHT22;28667;50.758;6.096;2023-05-10T13:32:04;15.30;99.90
43043;DHT22;28667;50.758;6.096;2023-05-10T13:34:30;15.30;99.90
43043;DHT22;28667;50.758;6.096;2023-05-10T13:36:56;15.30;99.90
43043;DHT22;28667;50.758;6.096;2023-05-10T13:39:22;15.30;99.90
43043;DHT22;28667;50.758;6.096;2023-05-10T13:41:47;15.30;99.90
43043;DHT22;28667;50.758;6.096;2023-05-10T13:44:14;15.40;99.90
43043;DHT22;28667;50.758;6.096;2023-05-10T13:46:43;15.50;99.90
43043;DHT22;28667;50.758;6.096;2023-05-10T13:49:09;15.60;99.90
43043;DHT22;28667;50.758;6.096;2023-05-10T13:51:35;15.70;99.90
43043;DHT22;28667;50.758;6.096;2023-05-10T13:54:02;15.90;99.90
43043;DHT22;28667;50.758;6.096;2023-05-10T13:56:28;16.00;99.90
43043;DHT22;28667;50.758;6.096;2023-05-10T13:58:53;16.00;99.90
43043;DHT22;28667;50.758;6.096;2023-05-10T14:01:19;16.00;99.90
43043;DHT22;28667;50.758;6.096;2023-05-10T14:03:45;16.00;99.90
43043;DHT22;28667;50.758;6.096;2023-05-10T14:06:11;16.00;99.90
43043;DHT22;28667;50.758;6.096;2023-05-10T14:08:37;16.00;99.90
43043;DHT22;28667;50.758;6.096;2023-05-10T14:11:02;15.90;99.90
43043;DHT22;28667;50.758;6.096;2023-05-10T14:13:28;15.90;99.90
43043;DHT22;28667;50.758;6.096;2023-05-10T14:15:54;15.80;99.90
43043;DHT22;28667;50.758;6.096;2023-05-10T14:18:20;15.80;99.90
43043;DHT22;28667;50.758;6.096;2023-05-10T14:20:46;15.70;99.90
43043;DHT22;28667;50.758;6.096;2023-05-10T14:23:12;15.50;99.90
43043;DHT22;28667;50.758;6.096;2023-05-10T14:25:40;15.50;99.90
43043;DHT22;28667;50.758;6.096;2023-05-10T14:28:06;15.40;99.90
43043;DHT22;28667;50.758;6.096;2023-05-10T14:30:32;15.30;99.90
43043;DHT22;28667;50.758;6.096;2023-05-10T14:33:02;15.20;99.90
43043;DHT22;28667;50.758;6.096;2023-05-10T14:35:28;15.10;99.90
43043;DHT22;28667;50.758;6.096;2023-05-10T14:37:56;15.10;99.90
43043;DHT22;28667;50.758;6.096;2023-05-10T14:40:22;15.00;99.90
43043;DHT22;28667;50.758;6.096;2023-05-10T14:42:48;14.90;99.90
43043;DHT22;28667;50.758;6.096;2023-05-10T14:45:14;14.80;99.90
43043;DHT22;28667;50.758;6.096;2023-05-10T14:47:39;14.80;99.90
43043;DHT22;28667;50.758;6.096;2023-05-10T14:50:05;14.70;99.90
43043;DHT22;28667;50.758;6.096;2023-05-10T14:52:31;14.70;99.90
43043;DHT22;28667;50.758;6.096;2023-05-10T14:54:57;14.70;99.90
43043;DHT22;28667;50.758;6.096;2023-05-10T14:57:24;14.70;99.90
43043;DHT22;28667;50.758;6.096;2023-05-10T14:59:50;14.60;99.90
43043;DHT22;28667;50.758;6.096;2023-05-10T15:02:15;14.60;99.90
43043;DHT22;28667;50.758;6.096;2023-05-10T15:04:41;14.50;99.90
43043;DHT22;28667;50.758;6.096;2023-05-10T15:07:07;14.50;99.90
43043;DHT22;28667;50.758;6.096;2023-05-10T15:09:33;14.50;99.90
43043;DHT22;28667;50.758;6.096;2023-05-10T15:11:59;14.50;99.90
43043;DHT22;28667;50.758;6.096;2023-05-10T15:14:25;14.60;99.90
43043;DHT22;28667;50.758;6.096;2023-05-10T15:16:50;14.60;99.90
43043;DHT22;28667;50.758;6.096;2023-05-10T15:19:16;14.70;99.90
43043;DHT22;28667;50.758;6.096;2023-05-10T15:21:42;14.70;99.90
43043;DHT22;28667;50.758;6.096;2023-05-10T15:24:09;14.60;99.90
43043;DHT22;28667;50.758;6.096;2023-05-10T15:26:35;14.70;99.90
43043;DHT22;28667;50.758;6.096;2023-05-10T15:29:01;14.80;99.90
43043;DHT22;28667;50.758;6.096;2023-05-10T15:31:27;14.80;99.90
43043;DHT22;28667;50.758;6.096;2023-05-10T15:33:57;14.80;99.90
43043;DHT22;28667;50.758;6.096;2023-05-10T15:36:24;14.80;99.90
43043;DHT22;28667;50.758;6.096;2023-05-10T15:38:50;14.90;99.90
43043;DHT22;28667;50.758;6.096;2023-05-10T15:41:16;14.90;99.90
43043;DHT22;28667;50.758;6.096;2023-05-10T15:43:42;15.00;99.90
43043;DHT22;28667;50.758;6.096;2023-05-10T15:46:08;15.00;99.90
43043;DHT22;28667;50.758;6.096;2023-05-10T15:48:33;15.10;99.90
43043;DHT22;28667;50.758;6.096;2023-05-10T15:50:59;15.20;99.90
43043;DHT22;28667;50.758;6.096;2023-05-10T15:53:25;15.30;99.90
43043;DHT22;28667;50.758;6.096;2023-05-10T15:55:51;15.40;99.90
43043;DHT22;28667;50.758;6.096;2023-05-10T15:58:17;15.50;99.90
43043;DHT22;28667;50.758;6.096;2023-05-10T16:00:43;15.60;99.90
43043;DHT22;28667;50.758;6.096;2023-05-10T16:03:09;15.60;99.90
43043;DHT22;28667;50.758;6.096;2023-05-10T16:05:34;15.70;99.90